Time;durP1;ratioP1;P1;durP2;ratioP2;P2;SDS_P1;SDS_P2;PMS_P1;PMS_P2;Temp;Humidity;BMP_temperature;BMP_pressure;BME280_temperature;BME280_humidity;BME280_pressure;Samples;Min_cycle;Max_cycle;Signal;HPM_P1;HPM_P2
2022/10/27 00:01:52;;;;;;;1.52;0.82;;;20.00;50.40;;;;;;5052890;28;20725;-37
2022/10/27 00:04:22;;;;;;;1.95;0.77;;;20.00;50.40;;;;;;5051244;28;20658;-40
2022/10/27 00:06:53;;;;;;;2.08;1.00;;;20.00;50.50;;;;;;5052327;28;20618;-41
2022/10/27 00:09:24;;;;;;;2.33;0.95;;;20.10;50.60;;;;;;5048764;28;20195;-40
2022/10/27 00:11:57;;;;;;;1.63;0.80;;;20.10;51.20;;;;;;5032200;28;20203;-40
2022/10/27 00:14:28;;;;;;;2.72;1.00;;;20.00;50.60;;;;;;5032501;28;20194;-38
2022/10/27 00:16:59;;;;;;;1.25;0.80;;;20.10;50.60;;;;;;5050255;28;20219;-37
2022/10/27 00:19:30;;;;;;;2.42;0.80;;;20.10;50.60;;;;;;5052768;28;20556;-38
2022/10/27 00:22:00;;;;;;;3.00;1.10;;;20.10;50.50;;;;;;5036320;28;20200;-38
2022/10/27 00:24:31;;;;;;;1.48;0.77;;;20.10;50.40;;;;;;5032507;28;20188;-37
2022/10/27 00:27:04;;;;;;;3.45;1.30;;;20.10;50.40;;;;;;5039383;28;20307;-37
2022/10/27 00:29:34;;;;;;;1.40;0.70;;;20.20;50.50;;;;;;5052006;28;20199;-38
2022/10/27 00:32:05;;;;;;;2.22;0.82;;;20.20;50.60;;;;;;5038122;28;20677;-38
2022/10/27 00:34:36;;;;;;;1.77;0.82;;;20.20;50.50;;;;;;5050987;28;20196;-37
2022/10/27 00:37:07;;;;;;;2.00;0.90;;;20.20;50.60;;;;;;5044356;28;20226;-38
2022/10/27 00:39:38;;;;;;;1.85;0.88;;;20.20;50.60;;;;;;5050252;28;20206;-37
2022/10/27 00:42:13;;;;;;;1.88;1.00;;;20.30;50.60;;;;;;5033229;28;20191;-38
2022/10/27 00:44:45;;;;;;;1.88;0.90;;;20.30;50.70;;;;;;5033148;28;20670;-38
2022/10/27 00:47:23;;;;;;;1.73;0.77;;;20.30;50.70;;;;;;5031458;28;20240;-37
2022/10/27 00:49:59;;;;;;;1.98;0.80;;;20.30;50.70;;;;;;5043603;28;20207;-38
2022/10/27 00:52:34;;;;;;;2.00;0.90;;;20.30;50.80;;;;;;5030897;28;20202;-40
2022/10/27 00:55:08;;;;;;;1.77;0.88;;;20.30;50.80;;;;;;5029705;28;20203;-38
2022/10/27 00:57:42;;;;;;;1.35;0.70;;;20.40;50.80;;;;;;5030915;28;20223;-38
2022/10/27 01:00:13;;;;;;;1.73;0.70;;;20.40;50.80;;;;;;5041880;28;20227;-38
2022/10/27 01:02:44;;;;;;;2.47;0.95;;;20.40;50.70;;;;;;5031745;28;20200;-40
2022/10/27 01:05:18;;;;;;;2.75;1.23;;;20.40;50.70;;;;;;5040134;28;20196;-39
2022/10/27 01:07:50;;;;;;;2.22;0.90;;;20.40;50.70;;;;;;5030748;28;20216;-38
2022/10/27 01:10:22;;;;;;;1.10;1.00;;;20.40;50.70;;;;;;5039034;28;20277;-38
2022/10/27 01:12:56;;;;;;;1.60;0.95;;;20.40;50.70;;;;;;5048581;28;20188;-41
2022/10/27 01:15:33;;;;;;;2.90;0.90;;;20.50;50.70;;;;;;5044825;28;20195;-40
2022/10/27 01:18:12;;;;;;;1.08;0.70;;;20.50;50.70;;;;;;5033654;28;20219;-38
2022/10/27 01:21:16;;;;;;;1.77;0.73;;;20.50;50.80;;;;;;5046712;28;20724;-38
2022/10/27 01:24:04;;;;;;;1.73;0.98;;;20.50;50.80;;;;;;5038499;28;20195;-38
2022/10/27 01:26:49;;;;;;;2.80;0.93;;;20.50;50.60;;;;;;5030907;28;20216;-38
2022/10/27 01:29:55;;;;;;;2.47;1.08;;;20.50;50.70;;;;;;5045427;28;20202;-38
2022/10/27 01:32:35;;;;;;;2.88;1.17;;;20.50;50.60;;;;;;5028374;28;20215;-39
2022/10/27 01:35:11;;;;;;;1.90;0.88;;;20.50;50.90;;;;;;5039565;28;20196;-39
2022/10/27 01:37:47;;;;;;;2.17;1.17;;;20.50;50.80;;;;;;5031279;28;20297;-40
2022/10/27 01:40:24;;;;;;;1.67;0.90;;;20.50;50.90;;;;;;5044860;28;20215;-38
2022/10/27 01:42:58;;;;;;;3.45;1.08;;;20.50;50.80;;;;;;5051383;28;20206;-38
2022/10/27 01:45:31;;;;;;;2.25;0.80;;;20.50;50.80;;;;;;5048917;28;20205;-39
2022/10/27 01:48:05;;;;;;;2.83;1.30;;;20.60;50.90;;;;;;5050727;28;20219;-41
2022/10/27 01:50:38;;;;;;;2.22;1.10;;;20.50;50.90;;;;;;5047561;28;20202;-38
2022/10/27 01:53:08;;;;;;;1.98;0.82;;;20.60;50.80;;;;;;5049784;28;20187;-40
2022/10/27 01:55:50;;;;;;;3.03;0.90;;;20.50;50.90;;;;;;5046134;28;20207;-39
2022/10/27 01:58:52;;;;;;;2.70;0.88;;;20.50;51.00;;;;;;5034138;28;20249;-39
2022/10/27 02:01:36;;;;;;;2.63;0.93;;;20.50;51.60;;;;;;5030879;28;20233;-39
2022/10/27 02:04:16;;;;;;;3.25;1.17;;;20.50;50.90;;;;;;5050437;28;20195;-42
2022/10/27 02:06:55;;;;;;;2.13;1.08;;;20.50;51.00;;;;;;5031009;28;20250;-41
2022/10/27 02:09:34;;;;;;;2.13;0.90;;;20.50;50.90;;;;;;5050533;28;20210;-39
2022/10/27 02:12:10;;;;;;;2.78;1.10;;;20.50;50.90;;;;;;5049522;28;20206;-40
2022/10/27 02:14:42;;;;;;;3.00;1.20;;;20.50;50.90;;;;;;5030105;28;20184;-41
2022/10/27 02:17:15;;;;;;;2.38;0.80;;;20.50;50.80;;;;;;5030461;28;20220;-42
2022/10/27 02:19:50;;;;;;;1.00;0.80;;;20.50;50.90;;;;;;5043728;28;20199;-42
2022/10/27 02:22:22;;;;;;;2.83;0.85;;;20.50;50.90;;;;;;5033754;28;20229;-42
2022/10/27 02:24:53;;;;;;;3.00;1.00;;;20.50;50.90;;;;;;5044163;28;20191;-38
2022/10/27 02:27:32;;;;;;;1.13;0.63;;;20.50;51.00;;;;;;5033772;28;20216;-39
2022/10/27 02:30:04;;;;;;;1.40;0.70;;;20.50;51.10;;;;;;5049318;28;20199;-38
2022/10/27 02:32:36;;;;;;;1.30;0.65;;;20.50;51.00;;;;;;5032906;28;20223;-39
2022/10/27 02:35:12;;;;;;;2.63;1.02;;;20.40;51.10;;;;;;5034150;28;20192;-39
2022/10/27 02:37:44;;;;;;;1.50;0.90;;;20.40;51.10;;;;;;5033926;28;20222;-39
2022/10/27 02:40:15;;;;;;;2.22;0.77;;;20.40;51.10;;;;;;5047753;28;20199;-40
2022/10/27 02:42:45;;;;;;;1.80;1.08;;;20.40;51.10;;;;;;5054151;28;20226;-39
2022/10/27 02:45:16;;;;;;;2.25;0.98;;;20.40;51.00;;;;;;5053673;28;20683;-41
2022/10/27 02:47:47;;;;;;;1.55;0.75;;;20.40;51.00;;;;;;5033817;28;20684;-38
2022/10/27 02:50:20;;;;;;;1.30;0.88;;;20.40;51.00;;;;;;5038986;28;20195;-43
2022/10/27 02:52:50;;;;;;;3.75;1.17;;;20.40;51.00;;;;;;5046706;28;20200;-39
2022/10/27 02:55:21;;;;;;;2.20;1.00;;;20.30;51.00;;;;;;5053398;28;20194;-38
2022/10/27 02:57:52;;;;;;;1.05;0.63;;;20.30;51.00;;;;;;5042612;28;20224;-38
2022/10/27 03:00:22;;;;;;;1.65;1.00;;;20.30;51.00;;;;;;5049441;28;20574;-42
2022/10/27 03:02:53;;;;;;;0.98;0.80;;;20.30;51.00;;;;;;5038087;28;20212;-39
2022/10/27 03:05:26;;;;;;;1.73;1.17;;;20.30;51.00;;;;;;5052971;28;20199;-39
2022/10/27 03:07:57;;;;;;;2.40;0.88;;;20.30;51.10;;;;;;5051798;28;20222;-39
2022/10/27 03:10:28;;;;;;;3.20;1.08;;;20.30;51.10;;;;;;5040132;28;20188;-38
2022/10/27 03:12:58;;;;;;;2.05;1.08;;;20.30;51.10;;;;;;5044477;28;20675;-39
2022/10/27 03:15:29;;;;;;;2.42;1.13;;;20.20;51.10;;;;;;5048810;28;20196;-39
2022/10/27 03:18:00;;;;;;;2.10;1.10;;;20.20;51.10;;;;;;5052950;28;20246;-39
2022/10/27 03:20:32;;;;;;;1.92;1.10;;;20.20;51.10;;;;;;5052646;28;20192;-39
2022/10/27 03:23:03;;;;;;;1.52;1.30;;;20.20;51.00;;;;;;5053572;28;20207;-39
2022/10/27 03:25:35;;;;;;;1.85;1.30;;;20.20;51.10;;;;;;5043970;28;20200;-39
2022/10/27 03:28:06;;;;;;;3.40;1.83;;;20.20;51.10;;;;;;5033312;28;20625;-39
2022/10/27 03:30:37;;;;;;;2.80;1.55;;;20.20;51.10;;;;;;5034683;28;20196;-45
2022/10/27 03:33:08;;;;;;;3.80;1.70;;;20.20;51.00;;;;;;5052147;28;20207;-38
2022/10/27 03:35:41;;;;;;;3.10;1.88;;;20.20;51.10;;;;;;5051942;28;20849;-39
2022/10/27 03:38:12;;;;;;;3.60;1.67;;;20.10;51.00;;;;;;5048670;28;20302;-39
2022/10/27 03:40:43;;;;;;;2.80;1.98;;;20.10;51.00;;;;;;5044890;28;20208;-39
2022/10/27 03:43:13;;;;;;;3.15;1.70;;;20.10;51.10;;;;;;5047215;28;20196;-43
2022/10/27 03:45:44;;;;;;;3.58;2.13;;;20.10;51.10;;;;;;5052947;28;20199;-40
2022/10/27 03:48:15;;;;;;;2.45;1.80;;;20.10;51.10;;;;;;5041174;28;20220;-39
2022/10/27 03:50:51;;;;;;;2.70;1.80;;;20.00;51.00;;;;;;5040358;28;20206;-40
2022/10/27 03:53:22;;;;;;;2.72;1.88;;;20.00;51.10;;;;;;5049087;28;20203;-39
2022/10/27 03:55:53;;;;;;;3.40;2.00;;;20.10;51.00;;;;;;5052980;28;20200;-40
2022/10/27 03:58:24;;;;;;;4.95;2.10;;;20.00;51.00;;;;;;5051156;28;20231;-39
2022/10/27 04:00:54;;;;;;;2.78;1.95;;;20.00;51.00;;;;;;5051780;28;20215;-39
2022/10/27 04:03:25;;;;;;;3.40;1.77;;;20.00;51.00;;;;;;5052436;28;20206;-38
2022/10/27 04:05:58;;;;;;;3.05;1.75;;;20.00;51.10;;;;;;5033003;28;20196;-38
2022/10/27 04:08:28;;;;;;;2.92;1.63;;;20.00;51.20;;;;;;5033037;28;20220;-39
2022/10/27 04:10:59;;;;;;;2.75;1.50;;;20.00;51.20;;;;;;5045323;28;20210;-42
2022/10/27 04:13:30;;;;;;;2.85;1.77;;;20.00;51.30;;;;;;5051771;28;20211;-40
2022/10/27 04:16:02;;;;;;;3.63;1.67;;;20.00;51.50;;;;;;5041313;28;20205;-38
2022/10/27 04:18:33;;;;;;;2.83;1.65;;;20.00;51.50;;;;;;5032355;28;20223;-39
2022/10/27 04:21:07;;;;;;;2.63;1.90;;;20.00;51.40;;;;;;5036147;28;20713;-39
2022/10/27 04:23:38;;;;;;;2.53;1.45;;;20.00;51.50;;;;;;5052401;28;20211;-38
2022/10/27 04:26:09;;;;;;;3.85;1.95;;;20.00;52.00;;;;;;5049778;28;20550;-42
2022/10/27 04:28:39;;;;;;;3.13;2.00;;;20.00;51.40;;;;;;5038649;28;20206;-42
2022/10/27 04:31:11;;;;;;;1.95;1.33;;;20.00;51.40;;;;;;5051489;28;20709;-39
2022/10/27 04:33:42;;;;;;;4.35;1.83;;;20.00;51.40;;;;;;5034214;28;20730;-39
2022/10/27 04:36:14;;;;;;;3.55;2.00;;;19.90;51.50;;;;;;5031683;28;20683;-44
2022/10/27 04:38:45;;;;;;;4.22;2.05;;;19.90;51.50;;;;;;5030803;28;20206;-40
2022/10/27 04:41:16;;;;;;;3.13;1.98;;;19.90;51.50;;;;;;5032543;28;20216;-50
2022/10/27 04:43:49;;;;;;;4.32;1.90;;;19.90;51.60;;;;;;5030326;28;20664;-51
2022/10/27 04:46:20;;;;;;;2.17;1.98;;;19.90;51.60;;;;;;5031239;28;20565;-42
2022/10/27 04:48:51;;;;;;;3.28;1.90;;;19.90;51.70;;;;;;5032503;28;20200;-43
2022/10/27 04:51:24;;;;;;;1.90;1.70;;;19.90;52.30;;;;;;5051122;28;20198;-45
2022/10/27 04:53:54;;;;;;;3.63;1.85;;;19.80;51.60;;;;;;5049593;28;20670;-46
2022/10/27 04:56:25;;;;;;;3.38;1.95;;;19.80;51.60;;;;;;5030282;28;20188;-38
2022/10/27 04:58:56;;;;;;;3.40;2.00;;;19.80;51.60;;;;;;5050279;28;20202;-40
2022/10/27 05:01:26;;;;;;;3.25;1.80;;;19.80;51.80;;;;;;5049063;28;20695;-39
2022/10/27 05:03:57;;;;;;;2.35;1.77;;;19.80;51.90;;;;;;5051177;28;20198;-40
2022/10/27 05:06:30;;;;;;;2.97;1.90;;;19.80;51.80;;;;;;5050806;28;20191;-37
2022/10/27 05:09:00;;;;;;;3.78;2.13;;;19.80;51.90;;;;;;5051731;28;20199;-38
2022/10/27 05:11:33;;;;;;;2.88;1.83;;;19.80;52.00;;;;;;5047399;28;20192;-39
2022/10/27 05:14:04;;;;;;;2.00;1.73;;;19.80;52.10;;;;;;5044224;28;20274;-39
2022/10/27 05:16:34;;;;;;;1.80;1.67;;;19.80;52.00;;;;;;5041250;28;20214;-38
2022/10/27 05:19:05;;;;;;;2.22;1.77;;;19.80;52.00;;;;;;5031860;28;20196;-40
2022/10/27 05:21:38;;;;;;;2.92;2.00;;;19.80;52.00;;;;;;5040629;28;20219;-40
2022/10/27 05:24:09;;;;;;;2.10;1.48;;;19.70;52.00;;;;;;5050435;28;20663;-39
2022/10/27 05:26:40;;;;;;;2.05;1.48;;;19.70;52.00;;;;;;5050690;28;20590;-39
2022/10/27 05:29:10;;;;;;;3.13;1.90;;;19.70;52.00;;;;;;5050460;28;20196;-43
2022/10/27 05:31:41;;;;;;;3.00;1.60;;;19.70;52.00;;;;;;5050772;28;20199;-38
2022/10/27 05:34:12;;;;;;;2.45;1.70;;;19.70;52.00;;;;;;5049887;28;20199;-38
2022/10/27 05:36:44;;;;;;;1.75;1.58;;;19.70;52.00;;;;;;5050558;28;20212;-40
2022/10/27 05:39:15;;;;;;;3.05;1.70;;;19.70;52.00;;;;;;5051076;28;20652;-38
2022/10/27 05:41:46;;;;;;;2.28;1.42;;;19.70;52.00;;;;;;5049685;28;20214;-44
2022/10/27 05:44:16;;;;;;;2.08;1.58;;;19.60;52.00;;;;;;5050738;28;20199;-42
2022/10/27 05:46:47;;;;;;;2.65;1.73;;;19.60;51.90;;;;;;5040164;28;20291;-40
2022/10/27 05:49:18;;;;;;;2.38;1.70;;;19.60;52.00;;;;;;5036877;28;20203;-40
2022/10/27 05:51:51;;;;;;;1.70;1.60;;;19.60;52.20;;;;;;5050540;28;20196;-39
2022/10/27 05:54:22;;;;;;;3.10;1.40;;;19.60;52.20;;;;;;5050150;28;20564;-39
2022/10/27 05:56:53;;;;;;;2.33;1.50;;;19.60;52.20;;;;;;5050153;28;20679;-40
2022/10/27 05:59:23;;;;;;;2.22;1.60;;;19.50;52.10;;;;;;5049983;28;20206;-37
2022/10/27 06:01:54;;;;;;;2.63;1.60;;;19.50;52.10;;;;;;5049470;28;20224;-40
2022/10/27 06:04:25;;;;;;;2.47;1.33;;;19.50;52.10;;;;;;5050332;28;20572;-38
2022/10/27 06:06:58;;;;;;;2.05;1.40;;;19.50;52.00;;;;;;5049780;28;20223;-40
2022/10/27 06:09:29;;;;;;;3.10;1.33;;;19.50;52.10;;;;;;5049889;28;20207;-38
2022/10/27 06:12:00;;;;;;;1.95;1.40;;;19.50;52.00;;;;;;5040676;28;20200;-44
2022/10/27 06:14:31;;;;;;;2.88;1.60;;;19.50;52.10;;;;;;5029313;28;20207;-40
2022/10/27 06:17:01;;;;;;;3.25;1.88;;;19.50;52.20;;;;;;5039644;28;20754;-39
2022/10/27 06:19:32;;;;;;;2.58;1.45;;;19.50;52.20;;;;;;5050349;28;20203;-42
2022/10/27 06:22:04;;;;;;;3.10;1.50;;;19.50;52.20;;;;;;5049527;28;20683;-38
2022/10/27 06:24:35;;;;;;;4.15;1.85;;;19.50;52.20;;;;;;5050027;28;20218;-40
2022/10/27 06:27:06;;;;;;;3.13;1.80;;;19.40;52.10;;;;;;5040454;28;20209;-38
2022/10/27 06:29:37;;;;;;;2.35;1.70;;;19.40;52.20;;;;;;5044759;28;20199;-38
2022/10/27 06:32:07;;;;;;;2.30;1.67;;;19.40;52.10;;;;;;5049264;28;20226;-38
2022/10/27 06:34:38;;;;;;;2.85;1.70;;;19.40;52.10;;;;;;5033058;28;20196;-41
2022/10/27 06:37:11;;;;;;;3.08;1.50;;;19.40;52.10;;;;;;5028444;28;20699;-40
2022/10/27 06:39:41;;;;;;;2.53;1.70;;;19.40;52.10;;;;;;5028344;28;20203;-38
2022/10/27 06:42:12;;;;;;;3.20;1.83;;;19.30;52.00;;;;;;5028768;28;20220;-41
2022/10/27 06:44:43;;;;;;;2.47;1.40;;;19.30;52.00;;;;;;5028721;28;20207;-42
2022/10/27 06:47:13;;;;;;;2.97;1.60;;;19.30;52.10;;;;;;5028743;28;20580;-39
2022/10/27 06:49:44;;;;;;;3.47;1.80;;;19.30;52.10;;;;;;5033151;28;20197;-38
2022/10/27 06:52:17;;;;;;;2.00;1.42;;;19.30;52.10;;;;;;5029040;28;20611;-38
2022/10/27 06:54:47;;;;;;;2.08;1.40;;;19.30;52.10;;;;;;5029102;28;20238;-38
2022/10/27 06:57:18;;;;;;;2.42;1.38;;;19.30;52.10;;;;;;5039565;28;20596;-38
2022/10/27 06:59:49;;;;;;;2.40;1.48;;;19.30;52.10;;;;;;5048725;28;20202;-39
2022/10/27 07:02:21;;;;;;;2.25;1.50;;;19.30;52.10;;;;;;5048678;28;20583;-38
2022/10/27 07:04:51;;;;;;;2.67;1.40;;;19.30;52.10;;;;;;5048680;28;20286;-39
2022/10/27 07:07:24;;;;;;;1.92;1.30;;;19.30;52.00;;;;;;5050308;28;20220;-38
2022/10/27 07:09:55;;;;;;;2.33;1.40;;;19.20;52.10;;;;;;5051367;28;20287;-39
2022/10/27 07:12:26;;;;;;;2.63;1.40;;;19.20;52.00;;;;;;5050493;28;20223;-43
2022/10/27 07:14:56;;;;;;;2.67;1.60;;;19.20;52.00;;;;;;5052431;28;20199;-41
2022/10/27 07:17:27;;;;;;;1.92;1.45;;;19.20;52.00;;;;;;5052341;28;20763;-38
2022/10/27 07:19:58;;;;;;;2.08;1.48;;;19.20;52.00;;;;;;5052684;28;20693;-40
2022/10/27 07:22:30;;;;;;;2.00;1.08;;;19.20;52.00;;;;;;5052449;28;20219;-40
2022/10/27 07:25:01;;;;;;;4.05;1.42;;;19.20;52.00;;;;;;5052040;28;20195;-38
2022/10/27 07:27:32;;;;;;;2.50;1.35;;;19.20;52.10;;;;;;5051732;28;20578;-40
2022/10/27 07:30:02;;;;;;;2.60;1.20;;;19.20;52.10;;;;;;5052010;28;20202;-38
2022/10/27 07:32:33;;;;;;;2.25;1.40;;;19.20;52.10;;;;;;5051608;28;20206;-38
2022/10/27 07:35:04;;;;;;;2.38;1.33;;;19.10;52.10;;;;;;5051878;28;20569;-41
2022/10/27 07:37:36;;;;;;;2.55;1.40;;;19.10;52.10;;;;;;5051644;28;20220;-38
2022/10/27 07:40:08;;;;;;;2.50;1.30;;;19.10;52.10;;;;;;5051245;28;20205;-38
2022/10/27 07:42:45;;;;;;;2.10;1.40;;;19.10;52.10;;;;;;5051507;28;20219;-37
2022/10/27 07:45:17;;;;;;;1.65;1.35;;;19.10;52.00;;;;;;5052150;28;20268;-38
2022/10/27 07:47:48;;;;;;;2.08;1.25;;;19.10;52.00;;;;;;5051593;28;20586;-38
2022/10/27 07:50:20;;;;;;;3.33;1.50;;;19.10;52.00;;;;;;5051449;28;20570;-38
2022/10/27 07:52:53;;;;;;;1.65;1.40;;;19.10;52.00;;;;;;5051827;28;20262;-40
2022/10/27 07:55:25;;;;;;;2.60;1.40;;;19.10;52.00;;;;;;5051749;28;20191;-38
2022/10/27 07:58:02;;;;;;;1.95;1.20;;;19.10;52.00;;;;;;5051306;28;20211;-38
2022/10/27 08:00:34;;;;;;;3.35;1.40;;;19.10;52.00;;;;;;5051001;28;20369;-38
2022/10/27 08:03:05;;;;;;;2.78;1.65;;;19.00;52.00;;;;;;5051259;28;20234;-41
2022/10/27 08:05:37;;;;;;;1.85;1.10;;;19.10;52.00;;;;;;5051236;28;20663;-39
2022/10/27 08:08:10;;;;;;;2.33;1.35;;;19.00;52.00;;;;;;5051670;28;20239;-37
2022/10/27 08:10:42;;;;;;;2.10;1.38;;;19.00;52.00;;;;;;5051340;28;20206;-37
2022/10/27 08:13:13;;;;;;;1.88;1.30;;;19.00;52.00;;;;;;5051421;28;20203;-38
2022/10/27 08:15:44;;;;;;;2.35;1.42;;;19.00;52.00;;;;;;5051360;28;20233;-40
2022/10/27 08:18:15;;;;;;;1.70;1.30;;;19.00;52.00;;;;;;5050951;28;20226;-38
2022/10/27 08:20:47;;;;;;;2.25;1.40;;;19.00;52.00;;;;;;5051325;28;20200;-39
2022/10/27 08:23:23;;;;;;;1.77;1.15;;;19.00;52.00;;;;;;5051193;28;20243;-39
2022/10/27 08:25:54;;;;;;;1.98;1.20;;;19.00;52.00;;;;;;5051083;28;20254;-38
2022/10/27 08:28:25;;;;;;;2.30;1.45;;;19.00;52.00;;;;;;5050497;28;20266;-38
2022/10/27 08:30:56;;;;;;;2.45;1.30;;;19.00;52.00;;;;;;5050791;28;20233;-40
2022/10/27 08:33:27;;;;;;;1.85;1.30;;;19.00;52.00;;;;;;5051095;28;20195;-37
2022/10/27 08:35:57;;;;;;;2.20;1.40;;;19.00;52.00;;;;;;5050353;28;20192;-38
2022/10/27 08:38:31;;;;;;;3.38;1.63;;;19.00;52.70;;;;;;5050837;28;20211;-38
2022/10/27 08:41:11;;;;;;;2.38;1.33;;;18.90;52.10;;;;;;5051065;28;20211;-38
2022/10/27 08:44:16;;;;;;;1.92;1.20;;;18.90;52.20;;;;;;5050718;28;20227;-39
2022/10/27 08:46:51;;;;;;;2.80;1.83;;;18.90;52.20;;;;;;5037646;28;20713;-38
2022/10/27 08:49:39;;;;;;;2.85;1.38;;;18.90;52.20;;;;;;5032357;28;20199;-37
2022/10/27 08:52:17;;;;;;;1.63;1.27;;;18.90;52.30;;;;;;5050516;28;20191;-38
2022/10/27 08:54:54;;;;;;;2.25;1.40;;;18.90;52.20;;;;;;5050333;28;20188;-38
2022/10/27 08:57:28;;;;;;;3.30;1.40;;;19.00;52.40;;;;;;5050612;28;20223;-38
2022/10/27 08:59:59;;;;;;;2.58;1.50;;;19.00;52.40;;;;;;5050616;28;20202;-37
2022/10/27 09:03:11;;;;;;;2.22;1.35;;;19.00;52.50;;;;;;5050117;28;20223;-38
2022/10/27 09:05:54;;;;;;;3.75;1.40;;;19.00;52.70;;;;;;5013009;28;20203;-38
2022/10/27 09:08:33;;;;;;;2.75;1.20;;;19.00;52.60;;;;;;5050582;28;20218;-38
2022/10/27 09:11:18;;;;;;;2.38;1.33;;;18.90;52.70;;;;;;5050584;28;20202;-38
2022/10/27 09:14:08;;;;;;;1.55;1.27;;;18.90;52.60;;;;;;5050501;28;20203;-41
2022/10/27 09:16:43;;;;;;;2.75;1.40;;;18.90;52.60;;;;;;5050176;28;20227;-37
2022/10/27 09:19:17;;;;;;;1.63;1.20;;;18.90;52.60;;;;;;5045197;28;20191;-40
2022/10/27 09:21:48;;;;;;;3.10;1.70;;;18.90;52.60;;;;;;5051101;28;20217;-39
2022/10/27 09:24:22;;;;;;;1.52;1.33;;;18.90;52.70;;;;;;5051236;28;20238;-37
2022/10/27 09:26:59;;;;;;;2.65;1.48;;;18.90;52.60;;;;;;5045837;28;20589;-38
2022/10/27 09:29:34;;;;;;;2.35;1.40;;;18.90;52.60;;;;;;5042950;28;20192;-37
2022/10/27 09:32:13;;;;;;;1.50;1.20;;;18.90;52.50;;;;;;5041434;28;20274;-38
2022/10/27 09:34:47;;;;;;;1.92;1.35;;;18.90;52.50;;;;;;5031560;28;20540;-43
2022/10/27 09:37:20;;;;;;;3.63;1.70;;;18.90;52.50;;;;;;5031222;28;20220;-37
2022/10/27 09:39:52;;;;;;;2.83;1.45;;;18.90;52.50;;;;;;5036890;28;20198;-43
2022/10/27 09:42:25;;;;;;;1.95;1.13;;;18.90;52.50;;;;;;5051081;28;20655;-38
2022/10/27 09:44:59;;;;;;;1.98;1.45;;;18.90;52.50;;;;;;5035564;28;20194;-38
2022/10/27 09:47:33;;;;;;;2.08;1.40;;;18.90;52.40;;;;;;5031595;28;20220;-38
2022/10/27 09:50:06;;;;;;;1.90;1.20;;;18.90;52.40;;;;;;5038250;28;20666;-38
2022/10/27 09:52:40;;;;;;;2.17;1.33;;;18.80;52.70;;;;;;5051284;28;20199;-38
2022/10/27 09:55:11;;;;;;;2.22;1.15;;;18.80;53.00;;;;;;5050697;28;20218;-38
2022/10/27 09:57:45;;;;;;;1.98;1.30;;;18.90;52.90;;;;;;5050826;28;20222;-38
2022/10/27 10:00:29;;;;;;;1.92;1.20;;;18.90;52.80;;;;;;5029868;28;20212;-47
2022/10/27 10:03:08;;;;;;;2.20;1.30;;;18.90;52.80;;;;;;5046848;28;20216;-38
2022/10/27 10:05:39;;;;;;;1.88;1.25;;;18.90;52.70;;;;;;5049971;28;20195;-39
2022/10/27 10:08:23;;;;;;;1.45;1.30;;;18.90;53.20;;;;;;5033719;28;20212;-38
2022/10/27 10:10:59;;;;;;;1.88;1.20;;;18.90;52.60;;;;;;5030765;28;20259;-38
2022/10/27 10:13:33;;;;;;;1.83;1.20;;;18.90;52.60;;;;;;5030120;28;20196;-38
2022/10/27 10:16:12;;;;;;;1.75;1.15;;;18.90;52.60;;;;;;5043866;28;20198;-42
2022/10/27 10:18:45;;;;;;;2.00;1.20;;;18.80;52.50;;;;;;5047571;28;20196;-43
2022/10/27 10:21:18;;;;;;;3.33;1.63;;;18.80;52.50;;;;;;5030997;28;20195;-38
2022/10/27 10:23:54;;;;;;;2.65;1.23;;;18.80;52.50;;;;;;5029865;28;20224;-42
2022/10/27 10:26:26;;;;;;;1.48;1.27;;;18.80;52.50;;;;;;5030298;28;20199;-39
2022/10/27 10:29:09;;;;;;;2.28;1.70;;;18.80;52.50;;;;;;5039358;28;20561;-44
2022/10/27 10:31:39;;;;;;;1.98;1.15;;;18.80;52.50;;;;;;5049993;28;20192;-43
2022/10/27 10:34:26;;;;;;;2.00;1.30;;;18.80;52.50;;;;;;5049776;28;20202;-51
2022/10/27 10:36:57;;;;;;;1.98;1.30;;;18.80;52.50;;;;;;5049499;28;20265;-44
2022/10/27 10:39:29;;;;;;;1.25;1.02;;;18.80;52.40;;;;;;5049831;28;20202;-40
2022/10/27 10:42:20;;;;;;;2.55;1.38;;;18.70;52.40;;;;;;5050970;28;20200;-43
2022/10/27 10:45:12;;;;;;;2.30;1.30;;;18.80;52.40;;;;;;5047560;28;20230;-38
2022/10/27 10:47:48;;;;;;;1.58;1.25;;;18.80;52.30;;;;;;5053681;28;20710;-40
2022/10/27 10:50:18;;;;;;;1.85;1.20;;;18.70;52.20;;;;;;5047491;28;20256;-44
2022/10/27 10:52:51;;;;;;;0.95;0.85;;;18.70;52.30;;;;;;5053559;28;20203;-43
2022/10/27 10:55:28;;;;;;;1.80;1.10;;;18.70;52.30;;;;;;5051232;28;20192;-39
2022/10/27 10:58:00;;;;;;;2.10;1.20;;;18.70;52.30;;;;;;5052538;28;20353;-38
2022/10/27 11:00:32;;;;;;;1.25;1.10;;;18.70;52.30;;;;;;5053276;28;20659;-41
2022/10/27 11:03:06;;;;;;;1.40;1.17;;;18.70;52.40;;;;;;5052983;28;20249;-38
2022/10/27 11:05:38;;;;;;;1.90;1.17;;;18.70;52.40;;;;;;5053365;28;20695;-38
2022/10/27 11:08:20;;;;;;;1.40;1.13;;;18.70;52.30;;;;;;5053538;28;20222;-38
2022/10/27 11:10:53;;;;;;;1.60;0.85;;;18.70;52.30;;;;;;5044368;28;20830;-38
2022/10/27 11:13:27;;;;;;;1.55;1.30;;;18.70;52.30;;;;;;5034085;28;20576;-38
2022/10/27 11:16:03;;;;;;;1.13;1.00;;;18.70;52.30;;;;;;5034122;28;20569;-38
2022/10/27 11:18:38;;;;;;;2.22;1.25;;;18.70;52.30;;;;;;5032038;28;20223;-41
2022/10/27 11:21:14;;;;;;;1.70;1.08;;;18.70;52.20;;;;;;5032940;28;20204;-41
2022/10/27 11:23:48;;;;;;;1.20;1.10;;;18.70;52.20;;;;;;5032487;28;20228;-38
2022/10/27 11:26:21;;;;;;;2.08;1.20;;;18.70;52.20;;;;;;5051495;28;20200;-38
2022/10/27 11:29:00;;;;;;;1.45;0.90;;;18.60;52.20;;;;;;5051593;28;20222;-38
2022/10/27 11:31:39;;;;;;;1.58;1.10;;;18.60;52.20;;;;;;5051843;28;20206;-38
2022/10/27 11:34:20;;;;;;;1.65;1.13;;;18.60;52.20;;;;;;5052344;28;20196;-39
2022/10/27 11:36:56;;;;;;;1.85;1.08;;;18.60;52.20;;;;;;5052163;28;20215;-38
2022/10/27 11:39:32;;;;;;;2.13;1.23;;;18.60;52.30;;;;;;5051953;28;20201;-38
2022/10/27 11:42:16;;;;;;;1.67;1.17;;;18.60;52.20;;;;;;5051681;28;20691;-38
2022/10/27 11:44:54;;;;;;;1.42;1.30;;;18.60;52.20;;;;;;5052145;28;20219;-38
2022/10/27 11:47:33;;;;;;;1.73;1.05;;;18.60;52.10;;;;;;5051879;28;20590;-38
2022/10/27 11:50:07;;;;;;;1.40;1.08;;;18.60;52.10;;;;;;5052023;28;20203;-38
2022/10/27 11:52:42;;;;;;;0.98;0.88;;;18.60;52.10;;;;;;5051343;28;20198;-38
2022/10/27 11:55:15;;;;;;;1.50;0.93;;;18.60;52.10;;;;;;5051334;28;20199;-38
2022/10/27 11:57:52;;;;;;;1.15;0.80;;;18.60;52.10;;;;;;5051115;28;20220;-38
2022/10/27 12:00:25;;;;;;;1.27;1.00;;;18.60;52.20;;;;;;5031790;28;20203;-40
2022/10/27 12:03:27;;;;;;;1.42;1.25;;;18.60;52.10;;;;;;5031734;28;20212;-38
2022/10/27 12:06:04;;;;;;;1.88;1.10;;;18.50;52.10;;;;;;5021290;28;20207;-38
2022/10/27 12:08:50;;;;;;;1.30;1.08;;;18.60;52.20;;;;;;5031616;28;20220;-38
2022/10/27 12:11:30;;;;;;;1.63;1.02;;;18.50;52.20;;;;;;5031766;28;20270;-38
2022/10/27 12:14:05;;;;;;;1.40;1.13;;;18.50;52.20;;;;;;5049744;28;20199;-38
2022/10/27 12:16:41;;;;;;;1.70;0.85;;;18.50;52.10;;;;;;5051169;28;20597;-38
2022/10/27 12:19:18;;;;;;;1.00;0.88;;;18.50;52.10;;;;;;5051602;28;20585;-42
2022/10/27 12:21:55;;;;;;;1.05;0.80;;;18.50;52.10;;;;;;5052088;28;20644;-38
2022/10/27 12:24:30;;;;;;;1.25;0.80;;;18.50;52.10;;;;;;5051487;28;20234;-44
2022/10/27 12:27:07;;;;;;;1.50;1.00;;;18.50;52.00;;;;;;5051133;28;20207;-38
2022/10/27 12:29:41;;;;;;;1.90;1.20;;;18.50;52.00;;;;;;5051164;28;20230;-38
2022/10/27 12:32:16;;;;;;;1.38;1.10;;;18.50;52.00;;;;;;5051244;28;20191;-39
2022/10/27 12:34:55;;;;;;;1.25;1.00;;;18.50;52.00;;;;;;5051107;28;20195;-41
2022/10/27 12:37:31;;;;;;;1.30;1.10;;;18.50;52.00;;;;;;5050654;28;20223;-40
2022/10/27 12:40:08;;;;;;;1.10;1.00;;;18.50;52.00;;;;;;5050922;28;20204;-41
2022/10/27 12:42:49;;;;;;;1.55;0.98;;;18.40;52.00;;;;;;5050607;28;20203;-38
2022/10/27 12:45:34;;;;;;;0.95;0.80;;;18.50;52.00;;;;;;5051175;28;20231;-38
2022/10/27 12:48:14;;;;;;;1.13;0.98;;;18.40;52.10;;;;;;5050641;28;20220;-40
2022/10/27 12:50:56;;;;;;;1.15;1.02;;;18.40;52.00;;;;;;5039177;28;20434;-38
2022/10/27 12:53:39;;;;;;;1.40;1.10;;;18.40;52.00;;;;;;5043215;28;20187;-39
2022/10/27 12:56:24;;;;;;;1.60;0.80;;;18.50;52.00;;;;;;5050774;28;20203;-38
2022/10/27 12:59:02;;;;;;;1.27;1.08;;;18.40;52.00;;;;;;5050312;28;20203;-41
2022/10/27 13:01:45;;;;;;;2.45;1.20;;;18.40;52.00;;;;;;5050830;28;20203;-38
2022/10/27 13:04:54;;;;;;;1.17;0.80;;;18.40;51.90;;;;;;5049800;28;20226;-38
2022/10/27 13:07:57;;;;;;;1.58;1.00;;;18.40;52.00;;;;;;5050554;28;20219;-38
2022/10/27 13:10:53;;;;;;;1.15;1.00;;;18.40;52.00;;;;;;5050414;28;20218;-38
2022/10/27 13:13:54;;;;;;;0.70;0.70;;;18.40;51.90;;;;;;5050029;28;20199;-38
2022/10/27 13:16:31;;;;;;;1.40;0.90;;;18.40;52.00;;;;;;5010891;28;20191;-39
2022/10/27 13:19:15;;;;;;;1.67;1.13;;;18.40;52.00;;;;;;5050064;28;20200;-42
2022/10/27 13:21:51;;;;;;;1.48;0.93;;;18.40;52.00;;;;;;5050614;28;20199;-42
2022/10/27 13:24:32;;;;;;;1.23;0.80;;;18.40;52.00;;;;;;5050207;28;20709;-44
2022/10/27 13:27:08;;;;;;;1.02;0.90;;;18.40;52.00;;;;;;5050240;28;20223;-49